sensor_id;sensor_type;location;lat;lon;timestamp;P1;durP1;ratioP1;P2;durP2;ratioP2
75216;SDS011;63800;51.972;5.682;2022-10-16T00:01:33;6.07;;;3.47;;
75216;SDS011;63800;51.972;5.682;2022-10-16T00:03:58;6.53;;;3.70;;
75216;SDS011;63800;51.972;5.682;2022-10-16T00:06:25;7.18;;;3.90;;
75216;SDS011;63800;51.972;5.682;2022-10-16T00:08:52;10.18;;;4.32;;
75216;SDS011;63800;51.972;5.682;2022-10-16T00:11:19;5.82;;;3.50;;
75216;SDS011;63800;51.972;5.682;2022-10-16T00:13:50;5.85;;;3.67;;
75216;SDS011;63800;51.972;5.682;2022-10-16T00:16:17;7.72;;;3.80;;
75216;SDS011;63800;51.972;5.682;2022-10-16T00:18:43;5.30;;;4.00;;
75216;SDS011;63800;51.972;5.682;2022-10-16T00:21:10;6.22;;;3.55;;
75216;SDS011;63800;51.972;5.682;2022-10-16T00:23:37;7.78;;;4.30;;
75216;SDS011;63800;51.972;5.682;2022-10-16T00:26:04;5.22;;;3.78;;
75216;SDS011;63800;51.972;5.682;2022-10-16T00:28:31;8.70;;;4.03;;
75216;SDS011;63800;51.972;5.682;2022-10-16T00:30:57;8.60;;;3.92;;
75216;SDS011;63800;51.972;5.682;2022-10-16T00:33:23;6.95;;;3.85;;
75216;SDS011;63800;51.972;5.682;2022-10-16T00:35:49;7.53;;;4.50;;
75216;SDS011;63800;51.972;5.682;2022-10-16T00:38:15;6.55;;;3.85;;
75216;SDS011;63800;51.972;5.682;2022-10-16T00:40:41;8.50;;;4.30;;
75216;SDS011;63800;51.972;5.682;2022-10-16T00:43:40;5.25;;;4.28;;
75216;SDS011;63800;51.972;5.682;2022-10-16T00:45:58;8.45;;;4.32;;
75216;SDS011;63800;51.972;5.682;2022-10-16T00:48:25;5.78;;;4.80;;
75216;SDS011;63800;51.972;5.682;2022-10-16T00:50:50;8.40;;;4.63;;
75216;SDS011;63800;51.972;5.682;2022-10-16T00:53:17;7.40;;;4.03;;
75216;SDS011;63800;51.972;5.682;2022-10-16T00:55:42;8.57;;;4.40;;
75216;SDS011;63800;51.972;5.682;2022-10-16T00:58:08;6.15;;;4.20;;
75216;SDS011;63800;51.972;5.682;2022-10-16T01:00:34;5.10;;;4.05;;
75216;SDS011;63800;51.972;5.682;2022-10-16T01:03:01;6.07;;;3.90;;
75216;SDS011;63800;51.972;5.682;2022-10-16T01:05:30;5.95;;;3.90;;
75216;SDS011;63800;51.972;5.682;2022-10-16T01:10:52;5.85;;;4.25;;
75216;SDS011;63800;51.972;5.682;2022-10-16T01:13:27;7.50;;;4.30;;
75216;SDS011;63800;51.972;5.682;2022-10-16T01:18:51;6.90;;;4.65;;
75216;SDS011;63800;51.972;5.682;2022-10-16T01:29:16;7.03;;;3.90;;
75216;SDS011;63800;51.972;5.682;2022-10-16T01:31:50;5.43;;;3.78;;
75216;SDS011;63800;51.972;5.682;2022-10-16T01:34:22;8.38;;;4.13;;
75216;SDS011;63800;51.972;5.682;2022-10-16T01:36:59;7.47;;;4.80;;
75216;SDS011;63800;51.972;5.682;2022-10-16T01:39:30;5.60;;;4.03;;
75216;SDS011;63800;51.972;5.682;2022-10-16T01:42:00;4.38;;;3.55;;
75216;SDS011;63800;51.972;5.682;2022-10-16T01:44:30;8.18;;;3.50;;
75216;SDS011;63800;51.972;5.682;2022-10-16T01:46:58;7.95;;;4.10;;
75216;SDS011;63800;51.972;5.682;2022-10-16T01:49:25;8.48;;;4.10;;
75216;SDS011;63800;51.972;5.682;2022-10-16T01:51:55;5.22;;;3.88;;
75216;SDS011;63800;51.972;5.682;2022-10-16T01:54:23;6.32;;;3.60;;
75216;SDS011;63800;51.972;5.682;2022-10-16T01:56:52;5.50;;;3.78;;
75216;SDS011;63800;51.972;5.682;2022-10-16T01:59:20;7.13;;;3.58;;
75216;SDS011;63800;51.972;5.682;2022-10-16T02:01:48;6.28;;;3.85;;
75216;SDS011;63800;51.972;5.682;2022-10-16T02:04:21;6.85;;;3.75;;
75216;SDS011;63800;51.972;5.682;2022-10-16T02:06:54;6.43;;;3.70;;
75216;SDS011;63800;51.972;5.682;2022-10-16T02:09:20;4.38;;;3.70;;
75216;SDS011;63800;51.972;5.682;2022-10-16T02:11:46;4.85;;;3.72;;
75216;SDS011;63800;51.972;5.682;2022-10-16T02:14:14;5.10;;;4.00;;
75216;SDS011;63800;51.972;5.682;2022-10-16T02:16:44;6.25;;;4.15;;
75216;SDS011;63800;51.972;5.682;2022-10-16T02:19:11;7.45;;;3.90;;
75216;SDS011;63800;51.972;5.682;2022-10-16T02:21:46;6.35;;;3.40;;
75216;SDS011;63800;51.972;5.682;2022-10-16T02:24:23;7.45;;;3.67;;
75216;SDS011;63800;51.972;5.682;2022-10-16T02:26:57;4.38;;;3.67;;
75216;SDS011;63800;51.972;5.682;2022-10-16T02:29:33;4.82;;;3.97;;
75216;SDS011;63800;51.972;5.682;2022-10-16T02:32:04;5.60;;;3.22;;
75216;SDS011;63800;51.972;5.682;2022-10-16T02:34:32;8.52;;;4.10;;
75216;SDS011;63800;51.972;5.682;2022-10-16T02:36:59;4.85;;;3.60;;
75216;SDS011;63800;51.972;5.682;2022-10-16T02:39:27;5.07;;;3.50;;
75216;SDS011;63800;51.972;5.682;2022-10-16T02:41:53;6.20;;;3.45;;
75216;SDS011;63800;51.972;5.682;2022-10-16T02:44:19;5.25;;;3.70;;
75216;SDS011;63800;51.972;5.682;2022-10-16T02:46:44;3.92;;;3.53;;
75216;SDS011;63800;51.972;5.682;2022-10-16T02:49:10;5.22;;;3.28;;
75216;SDS011;63800;51.972;5.682;2022-10-16T02:51:35;5.20;;;3.47;;
75216;SDS011;63800;51.972;5.682;2022-10-16T02:54:01;4.32;;;3.35;;
75216;SDS011;63800;51.972;5.682;2022-10-16T02:56:27;5.15;;;3.67;;
75216;SDS011;63800;51.972;5.682;2022-10-16T02:58:52;4.72;;;3.20;;
75216;SDS011;63800;51.972;5.682;2022-10-16T03:01:18;5.65;;;3.35;;
75216;SDS011;63800;51.972;5.682;2022-10-16T03:03:43;4.03;;;3.47;;
75216;SDS011;63800;51.972;5.682;2022-10-16T03:06:09;5.05;;;3.33;;
75216;SDS011;63800;51.972;5.682;2022-10-16T03:08:34;4.45;;;3.25;;
75216;SDS011;63800;51.972;5.682;2022-10-16T03:10:59;5.25;;;3.35;;
75216;SDS011;63800;51.972;5.682;2022-10-16T03:13:25;4.30;;;3.22;;
75216;SDS011;63800;51.972;5.682;2022-10-16T03:15:50;6.45;;;3.50;;
75216;SDS011;63800;51.972;5.682;2022-10-16T03:18:16;5.03;;;3.00;;
75216;SDS011;63800;51.972;5.682;2022-10-16T03:20:42;3.42;;;3.00;;
75216;SDS011;63800;51.972;5.682;2022-10-16T03:23:08;5.03;;;3.33;;
75216;SDS011;63800;51.972;5.682;2022-10-16T03:25:33;5.65;;;3.22;;
75216;SDS011;63800;51.972;5.682;2022-10-16T03:27:59;6.30;;;3.47;;
75216;SDS011;63800;51.972;5.682;2022-10-16T03:30:24;5.85;;;3.67;;
75216;SDS011;63800;51.972;5.682;2022-10-16T03:32:49;3.17;;;2.70;;
75216;SDS011;63800;51.972;5.682;2022-10-16T03:35:18;4.78;;;3.20;;
75216;SDS011;63800;51.972;5.682;2022-10-16T03:37:48;3.80;;;3.10;;
75216;SDS011;63800;51.972;5.682;2022-10-16T03:40:13;5.32;;;3.58;;
75216;SDS011;63800;51.972;5.682;2022-10-16T03:42:39;4.85;;;3.17;;
75216;SDS011;63800;51.972;5.682;2022-10-16T03:45:05;5.40;;;3.17;;
75216;SDS011;63800;51.972;5.682;2022-10-16T03:47:30;6.93;;;3.20;;
75216;SDS011;63800;51.972;5.682;2022-10-16T03:49:58;4.00;;;3.00;;
75216;SDS011;63800;51.972;5.682;2022-10-16T03:52:23;4.32;;;2.85;;
75216;SDS011;63800;51.972;5.682;2022-10-16T03:54:49;5.82;;;3.47;;
75216;SDS011;63800;51.972;5.682;2022-10-16T03:57:14;3.75;;;3.38;;
75216;SDS011;63800;51.972;5.682;2022-10-16T03:59:39;4.00;;;2.97;;
75216;SDS011;63800;51.972;5.682;2022-10-16T04:02:05;6.00;;;3.35;;
75216;SDS011;63800;51.972;5.682;2022-10-16T04:04:30;5.85;;;3.10;;
75216;SDS011;63800;51.972;5.682;2022-10-16T04:06:56;3.95;;;3.00;;
75216;SDS011;63800;51.972;5.682;2022-10-16T04:09:21;5.47;;;2.97;;
75216;SDS011;63800;51.972;5.682;2022-10-16T04:11:46;3.70;;;2.88;;
75216;SDS011;63800;51.972;5.682;2022-10-16T04:14:12;5.50;;;3.80;;
75216;SDS011;63800;51.972;5.682;2022-10-16T04:16:37;3.42;;;2.65;;
75216;SDS011;63800;51.972;5.682;2022-10-16T04:19:03;3.25;;;2.95;;
75216;SDS011;63800;51.972;5.682;2022-10-16T04:21:28;4.25;;;3.03;;
75216;SDS011;63800;51.972;5.682;2022-10-16T04:23:53;6.18;;;2.88;;
75216;SDS011;63800;51.972;5.682;2022-10-16T04:26:19;4.93;;;3.20;;
75216;SDS011;63800;51.972;5.682;2022-10-16T04:28:44;3.45;;;2.58;;
75216;SDS011;63800;51.972;5.682;2022-10-16T04:31:10;4.43;;;3.15;;
75216;SDS011;63800;51.972;5.682;2022-10-16T04:33:35;4.65;;;3.10;;
75216;SDS011;63800;51.972;5.682;2022-10-16T04:36:01;4.30;;;2.92;;
75216;SDS011;63800;51.972;5.682;2022-10-16T04:38:27;3.10;;;2.65;;
75216;SDS011;63800;51.972;5.682;2022-10-16T04:40:53;4.28;;;3.08;;
75216;SDS011;63800;51.972;5.682;2022-10-16T04:43:18;4.75;;;3.13;;
75216;SDS011;63800;51.972;5.682;2022-10-16T04:45:44;4.00;;;3.05;;
75216;SDS011;63800;51.972;5.682;2022-10-16T04:48:10;4.85;;;3.30;;
75216;SDS011;63800;51.972;5.682;2022-10-16T04:50:35;5.80;;;3.22;;
75216;SDS011;63800;51.972;5.682;2022-10-16T04:53:01;3.72;;;2.88;;
75216;SDS011;63800;51.972;5.682;2022-10-16T04:55:27;4.00;;;3.05;;
75216;SDS011;63800;51.972;5.682;2022-10-16T04:57:52;5.22;;;3.15;;
75216;SDS011;63800;51.972;5.682;2022-10-16T05:00:17;5.93;;;3.05;;
75216;SDS011;63800;51.972;5.682;2022-10-16T05:02:43;4.65;;;3.10;;
75216;SDS011;63800;51.972;5.682;2022-10-16T05:05:09;6.30;;;3.17;;
75216;SDS011;63800;51.972;5.682;2022-10-16T05:07:34;4.60;;;2.92;;
75216;SDS011;63800;51.972;5.682;2022-10-16T05:09:59;3.90;;;3.10;;
75216;SDS011;63800;51.972;5.682;2022-10-16T05:12:25;5.03;;;3.00;;
75216;SDS011;63800;51.972;5.682;2022-10-16T05:14:50;8.30;;;3.42;;
75216;SDS011;63800;51.972;5.682;2022-10-16T05:17:16;7.00;;;2.75;;
75216;SDS011;63800;51.972;5.682;2022-10-16T05:19:41;5.85;;;3.05;;
75216;SDS011;63800;51.972;5.682;2022-10-16T05:22:06;5.20;;;2.70;;
75216;SDS011;63800;51.972;5.682;2022-10-16T05:24:32;4.40;;;2.80;;
75216;SDS011;63800;51.972;5.682;2022-10-16T05:26:58;6.45;;;2.90;;
75216;SDS011;63800;51.972;5.682;2022-10-16T05:29:23;3.83;;;2.90;;
75216;SDS011;63800;51.972;5.682;2022-10-16T05:31:52;5.13;;;2.72;;
75216;SDS011;63800;51.972;5.682;2022-10-16T05:34:18;4.57;;;3.60;;
75216;SDS011;63800;51.972;5.682;2022-10-16T05:36:44;6.03;;;3.67;;
75216;SDS011;63800;51.972;5.682;2022-10-16T05:39:10;5.03;;;3.88;;
75216;SDS011;63800;51.972;5.682;2022-10-16T05:41:36;4.82;;;3.60;;
75216;SDS011;63800;51.972;5.682;2022-10-16T05:44:03;3.67;;;2.80;;
75216;SDS011;63800;51.972;5.682;2022-10-16T05:46:29;5.07;;;3.15;;
75216;SDS011;63800;51.972;5.682;2022-10-16T05:48:55;2.80;;;2.50;;
75216;SDS011;63800;51.972;5.682;2022-10-16T05:51:20;7.70;;;2.72;;
75216;SDS011;63800;51.972;5.682;2022-10-16T05:53:46;12.30;;;6.50;;
75216;SDS011;63800;51.972;5.682;2022-10-16T05:56:11;9.57;;;6.40;;
75216;SDS011;63800;51.972;5.682;2022-10-16T05:58:40;4.90;;;3.17;;
75216;SDS011;63800;51.972;5.682;2022-10-16T06:01:06;5.70;;;4.03;;
75216;SDS011;63800;51.972;5.682;2022-10-16T06:03:34;3.90;;;3.40;;
75216;SDS011;63800;51.972;5.682;2022-10-16T06:06:06;3.97;;;2.83;;
75216;SDS011;63800;51.972;5.682;2022-10-16T06:08:42;5.20;;;3.42;;
75216;SDS011;63800;51.972;5.682;2022-10-16T06:11:10;4.30;;;3.05;;
75216;SDS011;63800;51.972;5.682;2022-10-16T06:13:37;6.45;;;3.70;;
75216;SDS011;63800;51.972;5.682;2022-10-16T06:16:04;4.10;;;3.58;;
75216;SDS011;63800;51.972;5.682;2022-10-16T06:18:30;8.20;;;5.75;;
75216;SDS011;63800;51.972;5.682;2022-10-16T06:20:56;6.10;;;4.07;;
75216;SDS011;63800;51.972;5.682;2022-10-16T06:23:22;4.20;;;3.13;;
75216;SDS011;63800;51.972;5.682;2022-10-16T06:25:48;4.75;;;3.00;;
75216;SDS011;63800;51.972;5.682;2022-10-16T06:28:14;4.72;;;3.10;;
75216;SDS011;63800;51.972;5.682;2022-10-16T06:30:39;5.53;;;3.10;;
75216;SDS011;63800;51.972;5.682;2022-10-16T06:33:05;4.30;;;3.13;;
75216;SDS011;63800;51.972;5.682;2022-10-16T06:35:31;4.93;;;3.20;;
75216;SDS011;63800;51.972;5.682;2022-10-16T06:37:57;3.55;;;2.78;;
75216;SDS011;63800;51.972;5.682;2022-10-16T06:40:22;4.40;;;3.00;;
75216;SDS011;63800;51.972;5.682;2022-10-16T06:42:48;3.92;;;3.50;;
75216;SDS011;63800;51.972;5.682;2022-10-16T06:45:13;3.63;;;3.05;;
75216;SDS011;63800;51.972;5.682;2022-10-16T06:47:39;4.90;;;2.80;;
75216;SDS011;63800;51.972;5.682;2022-10-16T06:50:04;4.78;;;3.17;;
75216;SDS011;63800;51.972;5.682;2022-10-16T06:52:31;5.88;;;3.08;;
75216;SDS011;63800;51.972;5.682;2022-10-16T06:54:59;3.55;;;2.55;;
75216;SDS011;63800;51.972;5.682;2022-10-16T06:57:25;7.35;;;3.65;;
75216;SDS011;63800;51.972;5.682;2022-10-16T06:59:51;4.43;;;3.40;;
75216;SDS011;63800;51.972;5.682;2022-10-16T07:02:17;8.63;;;3.20;;
75216;SDS011;63800;51.972;5.682;2022-10-16T07:04:42;5.10;;;2.92;;
75216;SDS011;63800;51.972;5.682;2022-10-16T07:07:07;5.75;;;3.70;;
75216;SDS011;63800;51.972;5.682;2022-10-16T07:09:33;6.35;;;3.20;;
75216;SDS011;63800;51.972;5.682;2022-10-16T07:11:58;4.38;;;3.35;;
75216;SDS011;63800;51.972;5.682;2022-10-16T07:14:24;3.35;;;2.83;;
75216;SDS011;63800;51.972;5.682;2022-10-16T07:16:49;4.90;;;3.90;;
75216;SDS011;63800;51.972;5.682;2022-10-16T07:19:15;5.05;;;3.22;;
75216;SDS011;63800;51.972;5.682;2022-10-16T07:21:42;3.63;;;2.75;;
75216;SDS011;63800;51.972;5.682;2022-10-16T07:24:15;5.15;;;2.65;;
75216;SDS011;63800;51.972;5.682;2022-10-16T07:26:42;3.97;;;3.22;;
75216;SDS011;63800;51.972;5.682;2022-10-16T07:29:13;4.60;;;3.50;;
75216;SDS011;63800;51.972;5.682;2022-10-16T07:31:40;6.78;;;3.30;;
75216;SDS011;63800;51.972;5.682;2022-10-16T07:34:06;6.80;;;4.10;;
75216;SDS011;63800;51.972;5.682;2022-10-16T07:36:32;6.03;;;4.28;;
75216;SDS011;63800;51.972;5.682;2022-10-16T07:38:57;7.65;;;4.30;;
75216;SDS011;63800;51.972;5.682;2022-10-16T07:41:23;6.95;;;4.18;;
75216;SDS011;63800;51.972;5.682;2022-10-16T07:43:49;5.20;;;3.22;;
75216;SDS011;63800;51.972;5.682;2022-10-16T07:46:17;6.82;;;3.38;;
75216;SDS011;63800;51.972;5.682;2022-10-16T07:48:43;4.63;;;3.53;;
75216;SDS011;63800;51.972;5.682;2022-10-16T07:51:12;4.93;;;3.70;;
75216;SDS011;63800;51.972;5.682;2022-10-16T07:53:39;4.03;;;3.17;;
75216;SDS011;63800;51.972;5.682;2022-10-16T07:56:05;6.88;;;3.47;;
75216;SDS011;63800;51.972;5.682;2022-10-16T07:58:32;6.15;;;2.78;;
75216;SDS011;63800;51.972;5.682;2022-10-16T08:00:58;4.35;;;3.05;;
75216;SDS011;63800;51.972;5.682;2022-10-16T08:03:24;4.72;;;3.00;;
75216;SDS011;63800;51.972;5.682;2022-10-16T08:05:50;7.55;;;3.22;;
75216;SDS011;63800;51.972;5.682;2022-10-16T08:08:16;5.30;;;3.35;;
75216;SDS011;63800;51.972;5.682;2022-10-16T08:10:42;4.07;;;3.15;;
75216;SDS011;63800;51.972;5.682;2022-10-16T08:13:08;9.70;;;3.55;;
75216;SDS011;63800;51.972;5.682;2022-10-16T08:15:34;4.70;;;3.20;;
75216;SDS011;63800;51.972;5.682;2022-10-16T08:18:01;6.47;;;3.85;;
75216;SDS011;63800;51.972;5.682;2022-10-16T08:20:28;6.53;;;3.78;;
75216;SDS011;63800;51.972;5.682;2022-10-16T08:22:55;7.43;;;4.18;;
75216;SDS011;63800;51.972;5.682;2022-10-16T08:25:21;7.35;;;4.25;;
75216;SDS011;63800;51.972;5.682;2022-10-16T08:27:47;7.88;;;4.53;;
75216;SDS011;63800;51.972;5.682;2022-10-16T08:30:13;7.20;;;4.50;;
75216;SDS011;63800;51.972;5.682;2022-10-16T08:32:39;6.05;;;4.22;;
75216;SDS011;63800;51.972;5.682;2022-10-16T08:35:07;4.97;;;3.70;;
75216;SDS011;63800;51.972;5.682;2022-10-16T08:37:34;5.10;;;3.90;;
75216;SDS011;63800;51.972;5.682;2022-10-16T08:40:00;7.13;;;3.60;;
75216;SDS011;63800;51.972;5.682;2022-10-16T08:50:53;6.22;;;3.47;;
75216;SDS011;63800;51.972;5.682;2022-10-16T08:53:30;5.55;;;3.47;;
75216;SDS011;63800;51.972;5.682;2022-10-16T08:56:01;6.05;;;3.30;;
75216;SDS011;63800;51.972;5.682;2022-10-16T08:58:28;7.07;;;3.38;;
75216;SDS011;63800;51.972;5.682;2022-10-16T09:00:56;6.20;;;2.90;;
75216;SDS011;63800;51.972;5.682;2022-10-16T09:06:28;6.78;;;2.80;;
75216;SDS011;63800;51.972;5.682;2022-10-16T09:09:06;7.75;;;2.55;;
75216;SDS011;63800;51.972;5.682;2022-10-16T09:14:23;5.05;;;2.60;;
75216;SDS011;63800;51.972;5.682;2022-10-16T09:19:58;8.77;;;2.83;;
75216;SDS011;63800;51.972;5.682;2022-10-16T09:22:31;7.00;;;2.92;;
75216;SDS011;63800;51.972;5.682;2022-10-16T09:24:59;6.82;;;2.85;;
75216;SDS011;63800;51.972;5.682;2022-10-16T09:27:34;5.63;;;2.55;;
75216;SDS011;63800;51.972;5.682;2022-10-16T09:30:00;8.35;;;2.50;;
75216;SDS011;63800;51.972;5.682;2022-10-16T09:32:25;8.80;;;2.55;;
75216;SDS011;63800;51.972;5.682;2022-10-16T09:34:53;3.80;;;2.72;;
75216;SDS011;63800;51.972;5.682;2022-10-16T09:37:23;6.53;;;3.20;;
75216;SDS011;63800;51.972;5.682;2022-10-16T09:39:51;6.25;;;2.75;;
75216;SDS011;63800;51.972;5.682;2022-10-16T09:44:52;7.22;;;2.63;;
75216;SDS011;63800;51.972;5.682;2022-10-16T09:47:20;3.85;;;2.38;;
75216;SDS011;63800;51.972;5.682;2022-10-16T09:49:58;6.78;;;2.53;;
75216;SDS011;63800;51.972;5.682;2022-10-16T09:52:44;7.13;;;3.03;;
75216;SDS011;63800;51.972;5.682;2022-10-16T09:55:13;7.68;;;3.13;;
75216;SDS011;63800;51.972;5.682;2022-10-16T09:57:50;8.88;;;3.08;;
75216;SDS011;63800;51.972;5.682;2022-10-16T10:00:19;10.65;;;2.80;;
75216;SDS011;63800;51.972;5.682;2022-10-16T10:02:45;10.43;;;3.05;;
75216;SDS011;63800;51.972;5.682;2022-10-16T10:05:18;7.78;;;2.42;;
75216;SDS011;63800;51.972;5.682;2022-10-16T10:07:57;5.55;;;2.53;;
75216;SDS011;63800;51.972;5.682;2022-10-16T10:10:28;7.93;;;2.47;;
75216;SDS011;63800;51.972;5.682;2022-10-16T10:12:55;9.00;;;2.78;;
75216;SDS011;63800;51.972;5.682;2022-10-16T10:15:22;10.50;;;2.50;;
75216;SDS011;63800;51.972;5.682;2022-10-16T10:17:50;7.85;;;2.60;;
75216;SDS011;63800;51.972;5.682;2022-10-16T10:20:27;10.20;;;2.65;;
75216;SDS011;63800;51.972;5.682;2022-10-16T10:22:53;7.55;;;3.05;;
75216;SDS011;63800;51.972;5.682;2022-10-16T10:28:09;8.00;;;3.10;;
75216;SDS011;63800;51.972;5.682;2022-10-16T10:30:56;7.57;;;1.85;;
75216;SDS011;63800;51.972;5.682;2022-10-16T10:36:19;8.63;;;2.38;;
75216;SDS011;63800;51.972;5.682;2022-10-16T10:38:49;9.93;;;2.70;;
75216;SDS011;63800;51.972;5.682;2022-10-16T10:46:51;8.07;;;1.95;;
75216;SDS011;63800;51.972;5.682;2022-10-16T10:49:28;6.90;;;1.90;;
75216;SDS011;63800;51.972;5.682;2022-10-16T10:54:43;7.28;;;2.53;;
75216;SDS011;63800;51.972;5.682;2022-10-16T10:57:45;10.43;;;1.80;;
75216;SDS011;63800;51.972;5.682;2022-10-16T11:03:27;4.00;;;1.67;;
75216;SDS011;63800;51.972;5.682;2022-10-16T11:11:15;5.90;;;2.00;;
75216;SDS011;63800;51.972;5.682;2022-10-16T11:16:49;7.75;;;2.72;;
75216;SDS011;63800;51.972;5.682;2022-10-16T11:25:00;9.57;;;2.10;;
75216;SDS011;63800;51.972;5.682;2022-10-16T11:27:36;7.90;;;2.00;;
75216;SDS011;63800;51.972;5.682;2022-10-16T11:30:26;7.25;;;1.70;;
75216;SDS011;63800;51.972;5.682;2022-10-16T11:35:21;8.52;;;2.20;;
75216;SDS011;63800;51.972;5.682;2022-10-16T11:37:53;6.00;;;2.13;;
75216;SDS011;63800;51.972;5.682;2022-10-16T11:40:23;6.47;;;1.83;;
75216;SDS011;63800;51.972;5.682;2022-10-16T11:42:58;9.18;;;2.22;;
75216;SDS011;63800;51.972;5.682;2022-10-16T11:45:45;6.70;;;1.77;;
75216;SDS011;63800;51.972;5.682;2022-10-16T11:51:00;7.13;;;2.42;;
75216;SDS011;63800;51.972;5.682;2022-10-16T11:56:08;6.75;;;2.08;;
75216;SDS011;63800;51.972;5.682;2022-10-16T11:58:45;6.63;;;2.05;;
75216;SDS011;63800;51.972;5.682;2022-10-16T12:01:19;6.78;;;2.00;;
75216;SDS011;63800;51.972;5.682;2022-10-16T12:04:06;13.77;;;2.90;;
75216;SDS011;63800;51.972;5.682;2022-10-16T12:09:27;6.07;;;2.10;;
75216;SDS011;63800;51.972;5.682;2022-10-16T12:11:55;4.70;;;1.48;;
75216;SDS011;63800;51.972;5.682;2022-10-16T12:14:22;5.65;;;1.77;;
75216;SDS011;63800;51.972;5.682;2022-10-16T12:16:58;5.97;;;1.63;;
75216;SDS011;63800;51.972;5.682;2022-10-16T12:19:31;6.40;;;1.90;;
75216;SDS011;63800;51.972;5.682;2022-10-16T12:22:00;9.43;;;1.75;;
75216;SDS011;63800;51.972;5.682;2022-10-16T12:24:32;9.15;;;2.00;;
75216;SDS011;63800;51.972;5.682;2022-10-16T12:26:59;5.38;;;1.73;;
75216;SDS011;63800;51.972;5.682;2022-10-16T12:29:33;9.27;;;2.25;;
75216;SDS011;63800;51.972;5.682;2022-10-16T12:32:20;8.65;;;1.70;;
75216;SDS011;63800;51.972;5.682;2022-10-16T12:34:52;9.07;;;1.88;;
75216;SDS011;63800;51.972;5.682;2022-10-16T12:37:22;6.47;;;1.90;;
75216;SDS011;63800;51.972;5.682;2022-10-16T12:39:51;7.45;;;1.90;;
75216;SDS011;63800;51.972;5.682;2022-10-16T12:44:54;7.65;;;1.70;;
75216;SDS011;63800;51.972;5.682;2022-10-16T12:47:36;8.20;;;1.90;;
75216;SDS011;63800;51.972;5.682;2022-10-16T12:50:21;9.48;;;1.88;;
75216;SDS011;63800;51.972;5.682;2022-10-16T12:52:57;8.20;;;2.10;;
75216;SDS011;63800;51.972;5.682;2022-10-16T12:55:23;8.00;;;1.80;;
75216;SDS011;63800;51.972;5.682;2022-10-16T12:58:00;6.55;;;1.77;;
75216;SDS011;63800;51.972;5.682;2022-10-16T13:00:42;6.70;;;2.00;;
75216;SDS011;63800;51.972;5.682;2022-10-16T13:05:54;6.90;;;1.90;;
75216;SDS011;63800;51.972;5.682;2022-10-16T13:14:12;8.35;;;1.83;;
75216;SDS011;63800;51.972;5.682;2022-10-16T13:16:56;7.68;;;1.95;;
75216;SDS011;63800;51.972;5.682;2022-10-16T13:19:58;7.18;;;1.83;;
75216;SDS011;63800;51.972;5.682;2022-10-16T13:28:08;10.45;;;2.38;;
75216;SDS011;63800;51.972;5.682;2022-10-16T13:33:06;6.45;;;2.13;;
75216;SDS011;63800;51.972;5.682;2022-10-16T13:35:46;7.82;;;1.88;;
75216;SDS011;63800;51.972;5.682;2022-10-16T13:38:15;5.32;;;1.83;;
75216;SDS011;63800;51.972;5.682;2022-10-16T13:41:02;5.18;;;1.67;;
75216;SDS011;63800;51.972;5.682;2022-10-16T13:43:42;7.88;;;2.45;;
75216;SDS011;63800;51.972;5.682;2022-10-16T13:46:15;5.93;;;1.90;;
75216;SDS011;63800;51.972;5.682;2022-10-16T13:48:43;7.27;;;2.27;;
75216;SDS011;63800;51.972;5.682;2022-10-16T13:53:39;8.07;;;2.00;;
75216;SDS011;63800;51.972;5.682;2022-10-16T13:56:07;7.40;;;1.52;;
75216;SDS011;63800;51.972;5.682;2022-10-16T13:58:35;4.72;;;1.75;;
75216;SDS011;63800;51.972;5.682;2022-10-16T14:01:02;8.35;;;1.75;;
75216;SDS011;63800;51.972;5.682;2022-10-16T14:03:40;11.27;;;2.47;;
75216;SDS011;63800;51.972;5.682;2022-10-16T14:06:11;5.75;;;2.00;;
75216;SDS011;63800;51.972;5.682;2022-10-16T14:08:44;6.85;;;1.90;;
75216;SDS011;63800;51.972;5.682;2022-10-16T14:11:19;7.90;;;1.75;;
75216;SDS011;63800;51.972;5.682;2022-10-16T14:13:48;3.83;;;1.70;;
75216;SDS011;63800;51.972;5.682;2022-10-16T14:16:16;8.18;;;2.00;;
75216;SDS011;63800;51.972;5.682;2022-10-16T14:18:55;8.20;;;1.90;;
75216;SDS011;63800;51.972;5.682;2022-10-16T14:21:23;8.55;;;1.95;;
75216;SDS011;63800;51.972;5.682;2022-10-16T14:23:49;8.27;;;2.03;;
75216;SDS011;63800;51.972;5.682;2022-10-16T14:26:16;7.53;;;1.70;;
75216;SDS011;63800;51.972;5.682;2022-10-16T14:28:44;6.00;;;1.60;;
75216;SDS011;63800;51.972;5.682;2022-10-16T14:33:45;4.90;;;2.28;;
75216;SDS011;63800;51.972;5.682;2022-10-16T14:36:12;7.50;;;1.90;;
75216;SDS011;63800;51.972;5.682;2022-10-16T14:38:40;9.75;;;2.40;;
75216;SDS011;63800;51.972;5.682;2022-10-16T14:41:32;7.63;;;2.20;;
75216;SDS011;63800;51.972;5.682;2022-10-16T14:44:01;11.50;;;2.58;;
75216;SDS011;63800;51.972;5.682;2022-10-16T14:46:35;6.60;;;2.20;;
75216;SDS011;63800;51.972;5.682;2022-10-16T14:49:13;6.65;;;2.42;;
75216;SDS011;63800;51.972;5.682;2022-10-16T14:51:42;10.50;;;2.35;;
75216;SDS011;63800;51.972;5.682;2022-10-16T14:54:09;8.90;;;2.70;;
75216;SDS011;63800;51.972;5.682;2022-10-16T14:56:50;6.20;;;1.98;;
75216;SDS011;63800;51.972;5.682;2022-10-16T14:59:37;8.80;;;2.72;;
75216;SDS011;63800;51.972;5.682;2022-10-16T15:04:47;9.18;;;2.42;;
75216;SDS011;63800;51.972;5.682;2022-10-16T15:07:13;9.82;;;1.85;;
75216;SDS011;63800;51.972;5.682;2022-10-16T15:09:38;8.73;;;2.05;;
75216;SDS011;63800;51.972;5.682;2022-10-16T15:12:03;7.63;;;2.90;;
75216;SDS011;63800;51.972;5.682;2022-10-16T15:14:29;6.07;;;1.85;;
75216;SDS011;63800;51.972;5.682;2022-10-16T15:16:55;11.80;;;2.60;;
75216;SDS011;63800;51.972;5.682;2022-10-16T15:19:20;10.15;;;2.45;;
75216;SDS011;63800;51.972;5.682;2022-10-16T15:21:45;9.43;;;2.50;;
75216;SDS011;63800;51.972;5.682;2022-10-16T15:24:12;6.57;;;2.03;;
75216;SDS011;63800;51.972;5.682;2022-10-16T15:26:38;9.85;;;2.67;;
75216;SDS011;63800;51.972;5.682;2022-10-16T15:29:04;7.22;;;2.30;;
75216;SDS011;63800;51.972;5.682;2022-10-16T15:31:30;9.35;;;2.50;;
75216;SDS011;63800;51.972;5.682;2022-10-16T15:33:55;5.28;;;2.53;;
75216;SDS011;63800;51.972;5.682;2022-10-16T15:36:30;8.88;;;2.40;;
75216;SDS011;63800;51.972;5.682;2022-10-16T15:39:04;8.88;;;2.30;;
75216;SDS011;63800;51.972;5.682;2022-10-16T15:41:35;8.80;;;2.40;;
75216;SDS011;63800;51.972;5.682;2022-10-16T15:44:01;5.60;;;2.60;;
75216;SDS011;63800;51.972;5.682;2022-10-16T15:46:26;5.55;;;2.00;;
75216;SDS011;63800;51.972;5.682;2022-10-16T15:48:55;8.02;;;2.08;;
75216;SDS011;63800;51.972;5.682;2022-10-16T15:51:22;8.65;;;2.38;;
75216;SDS011;63800;51.972;5.682;2022-10-16T15:53:48;7.82;;;2.60;;
75216;SDS011;63800;51.972;5.682;2022-10-16T15:56:15;7.18;;;2.30;;
75216;SDS011;63800;51.972;5.682;2022-10-16T15:58:41;6.43;;;2.47;;
75216;SDS011;63800;51.972;5.682;2022-10-16T16:01:07;9.23;;;2.50;;
75216;SDS011;63800;51.972;5.682;2022-10-16T16:03:34;5.70;;;2.08;;
75216;SDS011;63800;51.972;5.682;2022-10-16T16:06:04;7.30;;;2.20;;
75216;SDS011;63800;51.972;5.682;2022-10-16T16:08:32;7.20;;;2.33;;
75216;SDS011;63800;51.972;5.682;2022-10-16T16:10:58;6.18;;;2.22;;
75216;SDS011;63800;51.972;5.682;2022-10-16T16:13:24;7.47;;;2.60;;
75216;SDS011;63800;51.972;5.682;2022-10-16T16:15:49;6.72;;;2.35;;
75216;SDS011;63800;51.972;5.682;2022-10-16T16:18:15;7.57;;;2.45;;
75216;SDS011;63800;51.972;5.682;2022-10-16T16:20:40;8.55;;;2.42;;
75216;SDS011;63800;51.972;5.682;2022-10-16T16:23:06;9.23;;;2.15;;
75216;SDS011;63800;51.972;5.682;2022-10-16T16:25:31;9.68;;;2.53;;
75216;SDS011;63800;51.972;5.682;2022-10-16T16:27:56;9.60;;;2.83;;
75216;SDS011;63800;51.972;5.682;2022-10-16T16:30:22;9.20;;;3.00;;
75216;SDS011;63800;51.972;5.682;2022-10-16T16:32:47;6.70;;;2.47;;
75216;SDS011;63800;51.972;5.682;2022-10-16T16:35:12;8.02;;;2.42;;
75216;SDS011;63800;51.972;5.682;2022-10-16T16:37:38;8.80;;;3.20;;
75216;SDS011;63800;51.972;5.682;2022-10-16T16:40:04;9.98;;;2.78;;